TRA weather

Tarama Airport
Tarama, Okinawa Prefecture, Japan

Public forecast

Using degrees Celsius for public forecast. Weather courtesy of forecast.io.

Closest aviation weather report (METAR) to Tarama Airport

Report is more than 6 hours old.

Closest report is Shimojishima Airport, 27.6 nm (51.2 km) ENE. Retrieved 2019/11/15 10:00 UTC (9 hours ago):

RORS 151000Z 07013KT 9999 SCT035 22/14 Q1016

Closest aviation forecast (TAF) to Tarama Airport

Closest forecast is Ishigaki Airport, 32.5 nm (60.2 km) SW. Retrieved UTC (0 seconds ago):